KTIW/TIW METAR and TAF weather

Enter ICAO airport designator
Station Type Date Time Source
KTIW METAR 2020/08/15 09:53 UTC NOAA

KTIW 150953Z AUTO 05004KT 10SM CLR 16/11 A3010 RMK AO2 SLP191 T01610106


Station Type Date Time Source
KTIW Decoded METAR 2020/08/15 09:53 UTC NOAA

Tacoma, Tacoma Narrows Airport, WA, United States (KTIW) 47-16-03N 122-34-34W 96M
Aug 15, 2020 - 05:53 AM EDT / 2020.08.15 0953 UTC
Wind: from the NE (050 degrees) at 5 MPH (4 KT):0
Visibility: 10 mile(s):0
Sky conditions: clear
Temperature: 61.0 F (16.1 C)
Dew Point: 51.1 F (10.6 C)
Relative Humidity: 69%
Pressure (altimeter): 30.1 in. Hg (1019 hPa)
ob: KTIW 150953Z AUTO 05004KT 10SM CLR 16/11 A3010 RMK AO2 SLP191 T01610106
cycle: 10

Station Type Date Time Source
KTIW TAF UTC NOAA

Error!

Example: see airport list